Time;durP1;ratioP1;P1;durP2;ratioP2;P2;SDS_P1;SDS_P2;PMS_P1;PMS_P2;Temp;Humidity;BMP_temperature;BMP_pressure;BME280_temperature;BME280_humidity;BME280_pressure;Samples;Min_cycle;Max_cycle;Signal;HPM_P1;HPM_P2
2021/09/29 00:01:58;;;;;;;5.77;3.80;;;18.40;99.90;;;;;;4996979;28;20539;-78
2021/09/29 00:04:26;;;;;;;7.50;3.70;;;18.40;99.90;;;;;;4994539;28;20448;-78
2021/09/29 00:06:54;;;;;;;5.27;4.03;;;18.40;99.90;;;;;;4989426;28;20484;-77
2021/09/29 00:09:22;;;;;;;5.00;3.10;;;18.30;99.90;;;;;;5001048;28;20533;-77
2021/09/29 00:11:50;;;;;;;5.37;2.67;;;18.40;99.90;;;;;;4999457;28;20863;-76
2021/09/29 00:14:18;;;;;;;3.80;3.03;;;18.50;99.90;;;;;;4996983;28;20476;-77
2021/09/29 00:16:46;;;;;;;5.20;4.80;;;18.50;99.90;;;;;;5000304;28;20467;-77
2021/09/29 00:19:16;;;;;;;4.57;2.97;;;18.30;99.90;;;;;;5002569;28;20484;-75
2021/09/29 00:21:44;;;;;;;2.60;2.40;;;18.40;99.90;;;;;;4998633;28;20511;-76
2021/09/29 00:24:12;;;;;;;4.63;3.43;;;18.30;99.90;;;;;;4994133;28;20557;-76
2021/09/29 00:26:41;;;;;;;5.57;2.80;;;18.30;99.90;;;;;;4997205;28;20453;-74
2021/09/29 00:29:09;;;;;;;4.90;2.83;;;18.30;99.90;;;;;;4995071;28;20841;-76
2021/09/29 00:31:39;;;;;;;6.23;3.00;;;18.30;99.90;;;;;;4999615;28;20455;-75
2021/09/29 00:34:09;;;;;;;3.33;2.73;;;18.20;99.90;;;;;;4999249;28;20488;-77
2021/09/29 00:36:42;;;;;;;7.10;2.67;;;18.20;99.90;;;;;;4998306;28;20885;-77
2021/09/29 00:39:12;;;;;;;3.07;2.77;;;18.40;99.90;;;;;;4993966;28;20984;-76
2021/09/29 00:41:41;;;;;;;2.63;2.20;;;18.50;99.90;;;;;;4998844;28;20530;-77
2021/09/29 00:44:09;;;;;;;3.40;2.90;;;18.50;99.90;;;;;;5000312;28;20538;-79
2021/09/29 00:46:37;;;;;;;2.50;2.13;;;18.40;99.90;;;;;;4999612;28;20522;-75
2021/09/29 00:49:05;;;;;;;3.30;2.60;;;18.40;99.90;;;;;;4996547;28;20514;-77
2021/09/29 00:51:34;;;;;;;3.57;2.60;;;18.50;99.90;;;;;;5000796;28;20491;-75
2021/09/29 00:54:05;;;;;;;3.97;2.70;;;18.50;99.90;;;;;;4996181;28;20478;-74
2021/09/29 00:56:34;;;;;;;3.67;2.80;;;18.50;99.90;;;;;;4991758;28;20463;-78
2021/09/29 00:59:02;;;;;;;3.40;2.60;;;18.50;99.90;;;;;;5001189;28;20558;-76
2021/09/29 01:01:30;;;;;;;3.77;2.40;;;18.50;99.90;;;;;;4995471;28;20461;-78
2021/09/29 01:04:01;;;;;;;2.43;2.23;;;18.50;99.90;;;;;;4999884;28;20996;-74
2021/09/29 01:06:36;;;;;;;2.20;2.10;;;18.40;99.90;;;;;;5001032;28;20461;-77
2021/09/29 01:09:14;;;;;;;3.20;2.77;;;18.40;99.90;;;;;;4999840;28;20518;-76
2021/09/29 01:11:51;;;;;;;4.10;2.57;;;18.20;99.90;;;;;;4997925;28;20465;-75
2021/09/29 01:14:27;;;;;;;2.47;2.27;;;17.90;99.90;;;;;;5002687;28;20483;-74
2021/09/29 01:16:58;;;;;;;3.50;2.63;;;17.80;99.90;;;;;;5003379;28;20552;-76
2021/09/29 01:19:42;;;;;;;2.80;2.53;;;17.70;99.90;;;;;;5004589;28;21047;-76
2021/09/29 01:22:20;;;;;;;5.67;2.60;;;17.50;99.90;;;;;;5005562;28;20469;-75
2021/09/29 01:24:55;;;;;;;3.43;2.83;;;17.50;99.90;;;;;;5003848;28;20458;-76
2021/09/29 01:27:26;;;;;;;3.57;2.60;;;17.50;99.90;;;;;;5020777;28;20452;-77
2021/09/29 01:29:55;;;;;;;4.13;3.00;;;17.50;99.90;;;;;;4997394;28;20464;-74
2021/09/29 01:32:24;;;;;;;2.70;2.50;;;17.70;99.90;;;;;;5003474;28;20473;-75
2021/09/29 01:34:53;;;;;;;4.87;3.00;;;17.70;99.90;;;;;;5000750;28;20461;-76
2021/09/29 01:37:22;;;;;;;3.77;2.73;;;17.60;99.90;;;;;;5005758;28;20565;-76
2021/09/29 01:39:51;;;;;;;3.80;2.80;;;17.50;99.90;;;;;;4995771;28;20463;-74
2021/09/29 01:42:19;;;;;;;4.03;3.17;;;17.60;99.90;;;;;;5003621;28;20569;-75
2021/09/29 01:44:49;;;;;;;4.37;3.20;;;17.60;99.90;;;;;;5001182;28;20836;-75
2021/09/29 01:47:17;;;;;;;6.90;3.13;;;17.50;99.90;;;;;;5002554;28;20530;-74
2021/09/29 01:49:48;;;;;;;3.20;2.87;;;17.30;99.90;;;;;;4993006;28;20522;-75
2021/09/29 01:52:21;;;;;;;3.23;2.87;;;17.10;99.90;;;;;;5002698;28;20456;-76
2021/09/29 01:54:52;;;;;;;3.33;3.03;;;17.00;99.90;;;;;;5002776;28;20830;-76
2021/09/29 01:57:21;;;;;;;3.37;3.07;;;17.00;99.90;;;;;;5004468;28;20530;-77
2021/09/29 01:59:51;;;;;;;4.17;2.60;;;17.10;99.90;;;;;;5003002;28;20471;-76
2021/09/29 02:02:19;;;;;;;3.13;2.80;;;17.10;99.90;;;;;;5003020;28;20456;-76
2021/09/29 02:04:48;;;;;;;3.23;3.00;;;17.00;99.90;;;;;;5002136;28;20512;-76
2021/09/29 02:07:17;;;;;;;4.33;2.70;;;16.90;99.90;;;;;;5005060;28;20817;-74
2021/09/29 02:09:47;;;;;;;3.70;2.97;;;17.00;99.90;;;;;;5002615;28;20465;-77
2021/09/29 02:12:15;;;;;;;2.73;2.53;;;17.00;99.90;;;;;;5004778;28;21003;-74
2021/09/29 02:14:43;;;;;;;3.00;2.80;;;17.10;99.90;;;;;;5003916;28;20461;-74
2021/09/29 02:17:12;;;;;;;3.07;2.83;;;17.20;99.90;;;;;;5002329;28;20468;-76
2021/09/29 02:19:41;;;;;;;2.70;2.50;;;17.20;99.90;;;;;;5000882;28;20461;-76
2021/09/29 02:22:09;;;;;;;4.90;2.63;;;17.30;99.90;;;;;;5000925;28;20927;-76
2021/09/29 02:24:37;;;;;;;5.57;3.27;;;17.30;99.90;;;;;;5003278;28;20531;-76
2021/09/29 02:27:05;;;;;;;3.37;3.00;;;17.30;99.90;;;;;;5001475;28;20990;-74
2021/09/29 02:29:33;;;;;;;3.53;3.23;;;17.20;99.90;;;;;;5000977;28;20541;-77
2021/09/29 02:32:01;;;;;;;5.33;3.40;;;17.10;99.90;;;;;;4999506;28;21510;-75
2021/09/29 02:34:31;;;;;;;2.90;2.70;;;17.20;99.90;;;;;;5003493;28;21057;-75
2021/09/29 02:37:00;;;;;;;2.70;2.50;;;17.30;99.90;;;;;;5002295;28;20697;-74
2021/09/29 02:39:28;;;;;;;2.23;2.03;;;17.20;99.90;;;;;;5002588;28;20465;-77
2021/09/29 02:41:56;;;;;;;6.10;5.10;;;17.20;99.90;;;;;;5002123;28;20464;-74
2021/09/29 02:44:24;;;;;;;4.30;3.03;;;17.00;99.90;;;;;;4999543;28;20487;-75
2021/09/29 02:46:52;;;;;;;4.30;3.07;;;17.10;99.90;;;;;;4996854;28;20449;-74
2021/09/29 02:49:20;;;;;;;3.57;3.10;;;17.20;99.90;;;;;;5002167;28;20527;-76
2021/09/29 02:51:50;;;;;;;4.57;3.37;;;17.20;99.90;;;;;;4998039;28;20871;-76
2021/09/29 02:54:18;;;;;;;4.07;3.67;;;17.40;99.90;;;;;;4998710;28;20529;-74
2021/09/29 02:56:46;;;;;;;3.63;3.33;;;17.30;99.90;;;;;;5000332;28;20511;-74
2021/09/29 02:59:14;;;;;;;3.20;2.90;;;17.30;99.90;;;;;;4986668;28;20462;-73
2021/09/29 03:01:43;;;;;;;4.00;3.70;;;17.40;99.90;;;;;;4999714;28;21039;-75
2021/09/29 03:04:11;;;;;;;3.90;3.20;;;17.40;99.90;;;;;;5002534;28;20484;-77
2021/09/29 03:06:40;;;;;;;9.63;3.50;;;17.50;99.90;;;;;;5001580;28;20461;-77
2021/09/29 03:09:09;;;;;;;3.63;3.33;;;17.40;99.90;;;;;;4997604;28;20476;-77
2021/09/29 03:11:37;;;;;;;4.13;3.73;;;17.30;99.90;;;;;;5000135;28;20962;-75
2021/09/29 03:14:05;;;;;;;4.53;3.03;;;17.10;99.90;;;;;;5001377;28;20475;-76
2021/09/29 03:16:33;;;;;;;4.90;4.40;;;17.10;99.90;;;;;;5000982;28;20826;-75
2021/09/29 03:19:02;;;;;;;4.10;3.40;;;16.90;99.90;;;;;;5002548;28;20523;-77
2021/09/29 03:21:30;;;;;;;4.47;3.37;;;17.00;99.90;;;;;;5001846;28;20468;-75
2021/09/29 03:23:59;;;;;;;3.80;3.50;;;16.90;99.90;;;;;;5017528;28;20936;-76
2021/09/29 03:26:28;;;;;;;3.50;3.20;;;17.00;99.90;;;;;;4993871;28;20475;-75
2021/09/29 03:28:56;;;;;;;3.20;2.90;;;17.10;99.90;;;;;;5001780;28;21518;-78
2021/09/29 03:31:24;;;;;;;3.07;2.67;;;17.20;99.90;;;;;;5001105;28;20461;-76
2021/09/29 03:33:54;;;;;;;4.80;3.23;;;17.20;99.90;;;;;;4996432;28;20484;-75
2021/09/29 03:36:22;;;;;;;3.73;3.43;;;17.10;99.90;;;;;;4999119;28;20460;-76
2021/09/29 03:38:50;;;;;;;3.50;3.20;;;16.90;99.90;;;;;;5001124;28;20573;-76
2021/09/29 03:41:18;;;;;;;3.80;2.57;;;16.90;99.90;;;;;;4998979;28;20451;-75
2021/09/29 03:43:48;;;;;;;3.57;3.27;;;16.90;99.90;;;;;;5001288;28;20533;-76
2021/09/29 03:46:16;;;;;;;4.00;3.10;;;16.90;99.90;;;;;;5001314;28;20465;-76
2021/09/29 03:48:44;;;;;;;4.27;3.80;;;17.00;99.90;;;;;;5001263;28;20544;-77
2021/09/29 03:51:15;;;;;;;2.70;2.50;;;16.70;99.90;;;;;;4989872;28;20453;-76
2021/09/29 03:53:43;;;;;;;3.70;3.10;;;16.70;99.90;;;;;;4997610;28;20480;-73
2021/09/29 03:56:11;;;;;;;3.93;2.57;;;16.70;99.90;;;;;;5002254;28;20444;-75
2021/09/29 03:58:39;;;;;;;2.83;2.60;;;16.80;99.90;;;;;;4996367;28;20529;-76
2021/09/29 04:01:08;;;;;;;3.47;2.73;;;16.80;99.90;;;;;;4997373;28;20514;-75
2021/09/29 04:03:37;;;;;;;3.43;3.10;;;17.10;99.90;;;;;;5002443;28;20783;-76
2021/09/29 04:06:05;;;;;;;3.57;2.93;;;17.00;99.90;;;;;;5000342;28;20534;-76
2021/09/29 04:08:33;;;;;;;5.10;2.80;;;17.10;99.90;;;;;;5001854;28;20460;-77
2021/09/29 04:11:01;;;;;;;2.83;2.63;;;17.10;99.90;;;;;;5001789;28;21043;-77
2021/09/29 04:13:31;;;;;;;3.00;2.00;;;17.20;99.90;;;;;;4999149;28;20491;-76
2021/09/29 04:15:59;;;;;;;3.30;2.40;;;17.20;99.90;;;;;;4999455;28;20468;-75
2021/09/29 04:18:29;;;;;;;3.30;1.90;;;17.20;99.90;;;;;;5001154;28;20553;-78
2021/09/29 04:20:57;;;;;;;2.77;1.83;;;17.40;99.90;;;;;;4996232;28;20454;-76
2021/09/29 04:23:25;;;;;;;5.20;2.37;;;17.40;99.90;;;;;;4999659;28;21093;-75
2021/09/29 04:25:54;;;;;;;2.83;2.10;;;17.40;99.90;;;;;;4989690;28;20534;-76
2021/09/29 04:28:22;;;;;;;2.43;2.23;;;17.40;99.90;;;;;;4997053;28;20464;-78
2021/09/29 04:30:50;;;;;;;2.93;2.20;;;17.50;99.90;;;;;;4999542;28;20464;-78
2021/09/29 04:33:18;;;;;;;2.13;1.93;;;17.50;99.90;;;;;;5002107;28;20482;-76
2021/09/29 04:35:48;;;;;;;2.30;2.10;;;17.50;99.90;;;;;;5013778;28;20466;-76
2021/09/29 04:38:16;;;;;;;2.97;2.00;;;17.30;99.90;;;;;;4995375;28;20471;-73
2021/09/29 04:40:44;;;;;;;2.37;1.83;;;17.10;99.90;;;;;;4998399;28;20877;-72
2021/09/29 04:43:12;;;;;;;2.23;1.93;;;16.90;99.90;;;;;;5000541;28;20481;-74
2021/09/29 04:45:41;;;;;;;1.83;1.63;;;16.70;99.90;;;;;;5000519;28;20861;-75
2021/09/29 04:48:09;;;;;;;2.67;2.33;;;16.70;99.90;;;;;;5002476;28;20441;-77
2021/09/29 04:50:37;;;;;;;3.03;1.60;;;16.80;99.90;;;;;;4998442;28;20460;-75
2021/09/29 04:53:07;;;;;;;2.00;1.80;;;16.90;99.90;;;;;;5000578;28;20477;-75
2021/09/29 04:55:35;;;;;;;2.03;1.93;;;17.00;99.90;;;;;;4998996;28;20471;-76
2021/09/29 04:58:04;;;;;;;3.77;3.10;;;16.90;99.90;;;;;;4993660;28;20468;-75
2021/09/29 05:00:32;;;;;;;2.33;2.03;;;17.00;99.90;;;;;;4998417;28;20473;-76
2021/09/29 05:03:02;;;;;;;3.10;1.90;;;17.10;99.90;;;;;;5000376;28;20563;-75
2021/09/29 05:05:33;;;;;;;3.40;2.70;;;17.10;99.90;;;;;;5016398;28;20563;-77
2021/09/29 05:08:03;;;;;;;2.33;2.23;;;17.10;99.90;;;;;;4996749;28;20961;-77
2021/09/29 05:10:41;;;;;;;3.67;2.17;;;16.90;99.90;;;;;;5000299;28;20453;-77
2021/09/29 05:13:13;;;;;;;2.83;1.97;;;16.80;99.90;;;;;;4998406;28;21057;-75
2021/09/29 05:15:41;;;;;;;2.20;2.00;;;16.80;99.90;;;;;;4993662;28;20518;-76
2021/09/29 05:18:09;;;;;;;3.80;2.20;;;16.90;99.90;;;;;;4997395;28;20479;-75
2021/09/29 05:20:38;;;;;;;3.00;2.70;;;16.90;99.90;;;;;;5000543;28;20464;-75
2021/09/29 05:23:06;;;;;;;2.70;2.50;;;16.90;99.90;;;;;;4997534;28;21129;-77
2021/09/29 05:25:35;;;;;;;2.50;2.30;;;16.90;99.90;;;;;;4999635;28;20490;-77
2021/09/29 05:28:06;;;;;;;3.13;2.93;;;16.90;99.90;;;;;;4995676;28;20463;-75
2021/09/29 05:30:35;;;;;;;3.93;2.50;;;16.90;99.90;;;;;;4997783;28;21063;-77
2021/09/29 05:33:03;;;;;;;4.57;2.33;;;16.80;99.90;;;;;;5000235;28;20944;-78
2021/09/29 05:35:31;;;;;;;3.60;2.30;;;16.70;99.90;;;;;;5001688;28;20487;-75
2021/09/29 05:37:59;;;;;;;3.20;2.10;;;16.60;99.90;;;;;;4998037;28;20463;-74
2021/09/29 05:40:28;;;;;;;5.60;3.00;;;16.50;99.90;;;;;;4998801;28;20475;-75
2021/09/29 05:42:57;;;;;;;2.83;2.63;;;16.50;99.90;;;;;;4997838;28;20497;-77
2021/09/29 05:45:25;;;;;;;2.80;2.17;;;16.40;99.90;;;;;;4999908;28;20483;-77
2021/09/29 05:47:53;;;;;;;5.07;2.57;;;16.50;99.90;;;;;;4999119;28;20979;-77
2021/09/29 05:50:22;;;;;;;5.17;3.13;;;16.30;99.90;;;;;;5001191;28;20455;-76
2021/09/29 05:52:50;;;;;;;3.27;2.27;;;16.40;99.90;;;;;;4998589;28;20480;-75
2021/09/29 05:55:18;;;;;;;6.40;2.70;;;16.50;99.90;;;;;;5000454;28;20459;-76
2021/09/29 05:57:46;;;;;;;5.00;2.90;;;16.30;99.90;;;;;;4998234;28;21751;-76
2021/09/29 06:00:17;;;;;;;3.23;2.03;;;16.10;99.90;;;;;;4999781;28;20500;-76
2021/09/29 06:02:45;;;;;;;4.23;3.27;;;16.10;99.90;;;;;;4998061;28;20519;-76
2021/09/29 06:05:13;;;;;;;2.70;2.50;;;16.10;1.00;;;;;;5004204;28;20571;-77
2021/09/29 06:07:41;;;;;;;3.20;2.90;;;16.10;1.00;;;;;;5003630;28;20453;-77
2021/09/29 06:10:11;;;;;;;3.40;2.43;;;16.20;99.90;;;;;;4998736;28;20450;-75
2021/09/29 06:12:40;;;;;;;4.23;2.30;;;16.20;99.90;;;;;;4999157;28;20927;-75
2021/09/29 06:15:10;;;;;;;5.00;3.03;;;16.10;1.00;;;;;;5003058;28;20948;-75
2021/09/29 06:17:42;;;;;;;2.93;2.53;;;16.00;1.00;;;;;;5002891;28;20500;-78
2021/09/29 06:20:11;;;;;;;2.93;2.63;;;16.20;1.00;;;;;;5002914;28;20845;-77
2021/09/29 06:22:39;;;;;;;3.40;2.83;;;16.20;1.00;;;;;;5003260;28;20993;-78
2021/09/29 06:25:08;;;;;;;5.23;2.93;;;15.90;1.00;;;;;;5003368;28;20535;-76
2021/09/29 06:27:36;;;;;;;4.60;2.97;;;16.00;1.00;;;;;;5003239;28;20972;-77
2021/09/29 06:30:05;;;;;;;6.33;2.80;;;16.10;1.00;;;;;;5002136;28;20465;-77
2021/09/29 06:32:33;;;;;;;4.10;2.67;;;16.20;1.00;;;;;;5002583;28;20780;-75
2021/09/29 06:35:04;;;;;;;2.20;2.10;;;16.40;1.00;;;;;;5000081;28;20499;-77
2021/09/29 06:37:38;;;;;;;2.40;2.20;;;16.50;99.90;;;;;;5003634;28;20456;-74
2021/09/29 06:40:08;;;;;;;2.23;2.03;;;16.70;99.90;;;;;;4999507;28;20527;-77
2021/09/29 06:42:36;;;;;;;2.30;2.10;;;16.80;99.90;;;;;;4995823;28;21018;-77
2021/09/29 06:45:06;;;;;;;3.80;2.40;;;16.80;99.90;;;;;;5000474;28;20466;-77
2021/09/29 06:47:34;;;;;;;2.47;2.27;;;16.90;99.90;;;;;;4999919;28;20466;-78
2021/09/29 06:50:04;;;;;;;3.00;2.50;;;16.90;99.90;;;;;;4998356;28;20463;-77
2021/09/29 06:52:32;;;;;;;2.10;1.50;;;17.10;99.90;;;;;;4998369;28;20471;-77
2021/09/29 06:55:00;;;;;;;3.60;1.60;;;16.90;99.90;;;;;;4999280;28;20467;-77
2021/09/29 06:57:28;;;;;;;2.20;1.80;;;17.00;99.90;;;;;;4999289;28;20457;-77
2021/09/29 06:59:57;;;;;;;2.77;1.87;;;17.00;99.90;;;;;;4999633;28;20470;-77
2021/09/29 07:02:25;;;;;;;2.53;1.60;;;17.00;99.90;;;;;;4991451;28;20489;-77
2021/09/29 07:04:53;;;;;;;2.30;1.40;;;16.90;99.90;;;;;;5001362;28;20487;-77
2021/09/29 07:07:23;;;;;;;2.87;1.60;;;17.10;99.90;;;;;;5004666;28;20487;-76
2021/09/29 07:09:51;;;;;;;1.63;1.50;;;17.20;99.90;;;;;;4999221;28;20465;-79
2021/09/29 07:12:19;;;;;;;2.40;1.53;;;17.30;99.90;;;;;;5000808;28;20519;-76
2021/09/29 07:14:47;;;;;;;1.30;1.20;;;17.30;99.90;;;;;;5000206;28;20488;-76
2021/09/29 07:17:15;;;;;;;1.43;1.33;;;17.30;99.90;;;;;;4998971;28;21005;-77
2021/09/29 07:19:43;;;;;;;2.33;1.30;;;17.40;99.90;;;;;;4999183;28;20464;-75
2021/09/29 07:22:11;;;;;;;1.27;1.10;;;17.30;99.90;;;;;;4997780;28;20474;-78
2021/09/29 07:24:40;;;;;;;2.10;1.47;;;17.30;99.90;;;;;;4998777;28;20467;-77
2021/09/29 07:27:09;;;;;;;1.70;1.30;;;17.40;99.90;;;;;;4999777;28;20469;-78
2021/09/29 07:29:37;;;;;;;1.77;1.23;;;17.40;99.90;;;;;;4998632;28;20483;-77
2021/09/29 07:32:06;;;;;;;2.43;1.40;;;17.30;99.90;;;;;;5000153;28;20468;-76
2021/09/29 07:34:36;;;;;;;2.70;1.30;;;17.10;99.90;;;;;;4997806;28;20471;-77
2021/09/29 07:37:05;;;;;;;1.20;1.10;;;17.30;99.90;;;;;;5001618;28;20952;-77
2021/09/29 07:39:33;;;;;;;2.07;1.20;;;17.30;99.90;;;;;;5003329;28;20468;-77
2021/09/29 07:42:02;;;;;;;1.10;1.00;;;17.50;99.90;;;;;;5002020;28;21202;-76
2021/09/29 07:44:30;;;;;;;1.00;0.90;;;17.50;99.90;;;;;;5006218;28;20462;-77
2021/09/29 07:46:58;;;;;;;0.90;0.90;;;17.50;99.90;;;;;;5001169;28;20812;-77
2021/09/29 07:49:27;;;;;;;0.90;0.80;;;17.40;99.90;;;;;;5000631;28;20801;-78
2021/09/29 07:51:57;;;;;;;1.97;0.80;;;17.70;99.90;;;;;;4999551;28;20961;-78
2021/09/29 07:54:27;;;;;;;1.23;0.90;;;18.10;99.90;;;;;;4995504;28;20480;-77
2021/09/29 07:56:55;;;;;;;2.17;0.90;;;18.40;99.90;;;;;;4995873;28;20441;-78
2021/09/29 07:59:25;;;;;;;1.10;1.00;;;18.90;99.90;;;;;;4999883;28;20452;-77
2021/09/29 08:01:53;;;;;;;0.87;0.87;;;19.30;99.90;;;;;;5000455;28;20449;-78
2021/09/29 08:04:21;;;;;;;2.50;0.90;;;19.80;99.90;;;;;;4999120;28;20535;-78
2021/09/29 08:06:50;;;;;;;4.10;0.97;;;20.00;99.90;;;;;;5001255;28;20510;-78
2021/09/29 08:09:18;;;;;;;1.10;1.00;;;20.20;99.90;;;;;;4998477;28;20523;-81
2021/09/29 08:11:46;;;;;;;1.00;0.80;;;20.50;99.90;;;;;;5000775;28;20464;-79
2021/09/29 08:14:17;;;;;;;0.80;0.80;;;20.70;99.90;;;;;;4997004;28;21021;-78
2021/09/29 08:16:48;;;;;;;3.07;0.80;;;20.70;99.90;;;;;;4995852;28;20462;-78
2021/09/29 08:19:16;;;;;;;3.07;1.20;;;21.00;99.90;;;;;;4999415;28;20453;-79
2021/09/29 08:21:46;;;;;;;1.23;0.83;;;21.30;99.90;;;;;;4998070;28;20504;-78
2021/09/29 08:24:17;;;;;;;1.63;0.70;;;21.50;99.90;;;;;;4999650;28;21143;-78
2021/09/29 08:32:34;;;;;;;1.03;0.93;;;21.80;99.90;;;;;;4963831;28;20588;-77
2021/09/29 08:35:09;;;;;;;2.00;0.93;;;21.60;99.90;;;;;;5000833;28;20460;-78
2021/09/29 08:37:45;;;;;;;1.73;0.90;;;21.50;99.90;;;;;;4999654;28;20829;-78
2021/09/29 08:40:18;;;;;;;1.37;1.00;;;21.50;99.90;;;;;;5004099;28;20533;-78
2021/09/29 08:43:06;;;;;;;1.43;0.67;;;21.50;99.90;;;;;;4993202;28;20476;-78
2021/09/29 08:45:38;;;;;;;1.60;1.00;;;21.40;99.90;;;;;;4999365;28;20984;-78
2021/09/29 08:48:19;;;;;;;0.93;0.83;;;21.30;99.90;;;;;;5000526;28;21042;-79
2021/09/29 08:51:18;;;;;;;1.00;0.67;;;21.10;99.90;;;;;;4997071;28;21038;-78
2021/09/29 08:54:01;;;;;;;1.00;0.80;;;21.10;99.90;;;;;;4998838;28;20477;-78
2021/09/29 08:56:42;;;;;;;3.43;1.00;;;21.00;99.90;;;;;;5000598;28;20457;-79
2021/09/29 09:16:07;;;;;;;1.03;0.70;;;20.50;99.90;;;;;;4997993;28;20471;-77
2021/09/29 09:18:46;;;;;;;1.20;0.70;;;20.40;99.90;;;;;;5000432;28;20445;-77
2021/09/29 09:21:17;;;;;;;5.13;0.90;;;20.30;99.90;;;;;;4992692;28;20494;-77
2021/09/29 09:23:59;;;;;;;1.63;0.80;;;20.10;99.90;;;;;;4997991;28;20540;-78
2021/09/29 09:26:29;;;;;;;1.57;0.60;;;20.00;99.90;;;;;;4999332;28;20851;-77
2021/09/29 09:29:05;;;;;;;2.57;0.77;;;20.00;99.90;;;;;;4992174;28;20469;-79
2021/09/29 09:31:34;;;;;;;1.87;0.70;;;19.90;99.90;;;;;;4998739;28;20531;-77
2021/09/29 09:34:04;;;;;;;1.23;0.90;;;20.00;99.90;;;;;;4998350;28;21224;-77
2021/09/29 09:36:36;;;;;;;3.20;0.67;;;20.10;99.90;;;;;;5001223;28;20460;-79
2021/09/29 09:39:07;;;;;;;0.80;0.80;;;20.20;99.90;;;;;;5003274;28;20740;-76
2021/09/29 09:41:36;;;;;;;0.60;0.53;;;20.20;99.90;;;;;;5003887;28;20461;-77
2021/09/29 09:44:06;;;;;;;1.00;0.80;;;20.20;99.90;;;;;;5002691;28;20511;-78
2021/09/29 09:46:34;;;;;;;0.70;0.67;;;20.00;99.90;;;;;;5002595;28;20464;-78
2021/09/29 09:49:06;;;;;;;0.87;0.60;;;20.00;99.90;;;;;;5002817;28;20868;-78
2021/09/29 09:51:48;;;;;;;2.30;0.80;;;19.80;99.90;;;;;;4999863;28;20445;-77
2021/09/29 09:54:18;;;;;;;0.80;0.60;;;19.80;99.90;;;;;;4992937;28;20863;-77
2021/09/29 09:56:52;;;;;;;1.43;0.60;;;19.80;99.90;;;;;;5003384;28;20446;-77
2021/09/29 09:59:21;;;;;;;3.17;0.90;;;19.80;99.90;;;;;;5004875;28;20471;-79
2021/09/29 10:01:49;;;;;;;1.27;0.50;;;19.90;99.90;;;;;;5005708;28;20461;-78
2021/09/29 10:04:18;;;;;;;0.90;0.60;;;20.10;99.90;;;;;;5004838;28;20476;-75
2021/09/29 10:06:47;;;;;;;2.50;0.97;;;20.10;99.90;;;;;;5005332;28;20568;-76
2021/09/29 10:09:27;;;;;;;2.30;1.20;;;20.30;99.90;;;;;;4996185;28;20938;-77
2021/09/29 10:12:10;;;;;;;0.87;0.70;;;20.80;99.90;;;;;;5003453;28;20453;-78
2021/09/29 10:14:50;;;;;;;2.70;0.80;;;21.30;99.90;;;;;;4999098;28;20476;-77
2021/09/29 10:23:15;;;;;;;1.53;0.77;;;22.10;99.90;;;;;;4976881;28;20492;-78
2021/09/29 10:26:14;;;;;;;1.00;0.60;;;21.90;99.90;;;;;;4997563;28;20468;-77
2021/09/29 10:28:43;;;;;;;1.47;0.80;;;21.60;99.90;;;;;;4992008;28;21108;-77
2021/09/29 10:34:06;;;;;;;0.57;0.57;;;21.10;99.90;;;;;;4993078;28;20485;-77
2021/09/29 10:36:49;;;;;;;1.00;0.63;;;21.00;99.90;;;;;;5002819;28;20458;-80
2021/09/29 10:42:25;;;;;;;1.10;0.80;;;20.50;99.90;;;;;;5003263;28;20464;-76
2021/09/29 11:11:38;;;;;;;1.50;0.70;;;20.70;99.90;;;;;;4960484;28;20455;-78
2021/09/29 11:28:30;;;;;;;0.60;0.50;;;20.80;99.90;;;;;;5016160;28;20480;-78
2021/09/29 11:31:03;;;;;;;0.77;0.60;;;21.00;99.90;;;;;;4995252;28;21019;-78
2021/09/29 11:33:37;;;;;;;1.30;0.60;;;21.50;99.90;;;;;;5000173;28;20488;-77
2021/09/29 11:36:20;;;;;;;2.50;0.60;;;21.70;99.90;;;;;;5001938;28;20437;-77
2021/09/29 12:09:51;;;;;;;3.70;0.53;;;21.00;99.90;;;;;;4998569;28;20566;-77
2021/09/29 12:12:22;;;;;;;1.40;0.70;;;21.10;99.90;;;;;;4999427;28;20501;-78
2021/09/29 12:14:52;;;;;;;1.40;0.67;;;21.30;99.90;;;;;;4992983;28;20461;-77
2021/09/29 12:17:25;;;;;;;0.53;0.50;;;21.50;99.90;;;;;;5001113;28;20787;-76
2021/09/29 12:19:57;;;;;;;0.70;0.50;;;21.60;99.90;;;;;;5001103;28;20465;-77
2021/09/29 12:22:28;;;;;;;1.03;0.70;;;21.50;99.90;;;;;;4999873;28;20481;-77
2021/09/29 12:25:00;;;;;;;3.43;0.60;;;21.40;99.90;;;;;;5000508;28;20458;-79
2021/09/29 12:27:35;;;;;;;1.10;0.70;;;21.50;99.90;;;;;;5001626;28;20449;-78
2021/09/29 12:30:29;;;;;;;1.43;0.67;;;21.40;99.90;;;;;;5015062;28;20440;-78
2021/09/29 12:33:09;;;;;;;0.77;0.60;;;21.40;99.90;;;;;;4988323;28;20849;-78
2021/09/29 12:35:51;;;;;;;1.03;0.60;;;21.50;99.90;;;;;;5001558;28;20450;-78
2021/09/29 12:38:21;;;;;;;1.00;0.70;;;21.50;99.90;;;;;;5001426;28;20498;-77
2021/09/29 12:40:50;;;;;;;2.20;0.70;;;21.40;99.90;;;;;;4999343;28;20466;-78
2021/09/29 12:43:23;;;;;;;1.80;0.73;;;21.60;99.90;;;;;;5002103;28;20469;-77
2021/09/29 12:45:51;;;;;;;2.83;0.60;;;21.50;99.90;;;;;;5002250;28;20979;-77
2021/09/29 12:48:24;;;;;;;1.30;0.80;;;21.40;99.90;;;;;;4999520;28;21379;-76
2021/09/29 12:50:57;;;;;;;1.27;0.63;;;21.40;99.90;;;;;;5012545;28;20457;-77
2021/09/29 12:53:31;;;;;;;1.37;0.60;;;21.40;99.90;;;;;;5000786;28;20515;-76
2021/09/29 12:56:02;;;;;;;1.73;0.53;;;21.40;99.90;;;;;;5000033;28;21055;-78
2021/09/29 12:58:31;;;;;;;1.03;0.53;;;21.40;99.90;;;;;;5001348;28;20456;-77
2021/09/29 13:01:00;;;;;;;1.03;0.60;;;21.30;99.90;;;;;;4991102;28;20478;-79
2021/09/29 13:03:29;;;;;;;1.67;0.70;;;21.40;99.90;;;;;;4992196;28;20809;-77
2021/09/29 13:05:59;;;;;;;1.00;0.53;;;21.40;99.90;;;;;;4997527;28;20502;-78
2021/09/29 13:08:28;;;;;;;0.80;0.60;;;21.40;99.90;;;;;;5000165;28;20464;-77
2021/09/29 13:10:58;;;;;;;0.60;0.60;;;21.40;99.90;;;;;;4999358;28;20472;-78
2021/09/29 13:13:27;;;;;;;2.63;0.90;;;21.30;99.90;;;;;;4998859;28;21310;-80
2021/09/29 13:15:58;;;;;;;1.73;0.70;;;21.30;99.90;;;;;;4999446;28;20194;-77
2021/09/29 13:18:30;;;;;;;0.80;0.80;;;21.30;99.90;;;;;;4998241;28;20453;-79
2021/09/29 13:21:03;;;;;;;3.33;0.60;;;21.20;99.90;;;;;;4999378;28;20815;-75
2021/09/29 13:23:34;;;;;;;1.53;0.60;;;21.00;99.90;;;;;;5003661;28;20469;-77
2021/09/29 13:37:04;;;;;;;1.27;0.80;;;20.30;99.90;;;;;;5012779;28;20467;-77
2021/09/29 13:39:32;;;;;;;0.90;0.80;;;20.30;99.90;;;;;;5013377;28;20953;-78
2021/09/29 13:42:01;;;;;;;2.50;0.70;;;19.80;99.90;;;;;;5002766;28;20514;-80
2021/09/29 13:44:29;;;;;;;0.70;0.70;;;19.60;99.90;;;;;;4998067;28;20477;-77
2021/09/29 13:46:57;;;;;;;0.83;0.70;;;19.50;99.90;;;;;;5003378;28;20453;-75
2021/09/29 13:49:25;;;;;;;3.33;1.30;;;19.60;99.90;;;;;;5004121;28;20492;-77
2021/09/29 13:51:57;;;;;;;1.00;0.70;;;19.40;99.90;;;;;;4993803;28;20460;-79
2021/09/29 13:54:27;;;;;;;0.80;0.77;;;19.50;99.90;;;;;;5004770;28;20500;-77
2021/09/29 13:56:58;;;;;;;1.30;0.60;;;19.40;99.90;;;;;;5002872;28;20856;-77
2021/09/29 13:59:42;;;;;;;2.27;0.77;;;19.30;99.90;;;;;;5004149;28;20446;-80
2021/09/29 14:30:00;;;;;;;0.40;0.40;;;19.20;99.90;;;;;;5010634;28;20480;-77
2021/09/29 14:32:31;;;;;;;0.80;0.40;;;19.00;99.90;;;;;;4984157;28;20509;-78
2021/09/29 14:34:59;;;;;;;0.67;0.40;;;19.00;99.90;;;;;;5002164;28;20516;-80
2021/09/29 14:37:27;;;;;;;1.10;0.50;;;19.10;99.90;;;;;;5002712;28;20457;-78
2021/09/29 14:39:55;;;;;;;0.77;0.50;;;19.00;99.90;;;;;;5002506;28;20457;-78
2021/09/29 14:42:25;;;;;;;0.60;0.40;;;19.00;99.90;;;;;;5002712;28;20868;-75
2021/09/29 14:44:53;;;;;;;1.03;0.50;;;19.00;99.90;;;;;;5003112;28;20539;-78
2021/09/29 14:47:21;;;;;;;0.40;0.40;;;18.90;99.90;;;;;;5002733;28;20897;-78
2021/09/29 14:49:49;;;;;;;0.40;0.40;;;18.80;99.90;;;;;;5015145;28;21109;-77
2021/09/29 14:52:17;;;;;;;0.80;0.50;;;18.90;99.90;;;;;;5001640;28;20465;-77
2021/09/29 14:54:46;;;;;;;0.57;0.50;;;19.00;99.90;;;;;;4996847;28;20460;-79
2021/09/29 14:57:14;;;;;;;0.50;0.43;;;19.00;99.90;;;;;;4998113;28;20453;-80
2021/09/29 14:59:45;;;;;;;0.70;0.50;;;18.90;99.90;;;;;;4998689;28;20451;-77
2021/09/29 15:02:15;;;;;;;0.60;0.50;;;18.80;99.90;;;;;;5003408;28;20465;-77
2021/09/29 15:04:44;;;;;;;0.60;0.60;;;18.80;99.90;;;;;;5010874;28;21051;-77
2021/09/29 15:07:12;;;;;;;0.60;0.60;;;18.80;99.90;;;;;;5023102;28;20964;-77
2021/09/29 15:09:41;;;;;;;1.27;0.60;;;18.90;99.90;;;;;;5002262;28;20493;-75
2021/09/29 15:12:09;;;;;;;0.40;0.40;;;18.90;99.90;;;;;;4997866;28;20454;-78
2021/09/29 15:17:33;;;;;;;1.27;0.47;;;18.80;99.90;;;;;;5002641;28;20457;-76
2021/09/29 15:20:07;;;;;;;1.13;0.50;;;18.70;99.90;;;;;;5002866;28;20462;-79
2021/09/29 15:22:46;;;;;;;0.43;0.43;;;18.70;99.90;;;;;;5002940;28;20492;-78
2021/09/29 15:25:33;;;;;;;0.57;0.57;;;18.80;99.90;;;;;;5002205;28;20449;-77
2021/09/29 15:31:06;;;;;;;0.97;0.50;;;18.70;99.90;;;;;;5001531;28;20477;-77
2021/09/29 15:47:27;;;;;;;0.50;0.50;;;18.60;99.90;;;;;;5002291;28;20465;-77
2021/09/29 15:50:23;;;;;;;0.40;0.40;;;18.50;99.90;;;;;;5001995;28;20477;-76